Time;durP1;ratioP1;P1;durP2;ratioP2;P2;SDS_P1;SDS_P2;PMS_P1;PMS_P2;Temp;Humidity;BMP_temperature;BMP_pressure;BME280_temperature;BME280_humidity;BME280_pressure;Samples;Min_cycle;Max_cycle;Signal;HPM_P1;HPM_P2
2021/01/22 05:47:15;;;;;;;;;;;5.90;99.90;;;;;;6080365;23;19943;-78
2021/01/22 05:49:53;;;;;;;;;;;3.00;99.90;;;;;;4997465;28;19926;-77
2021/01/22 05:52:20;;;;;;;;;;;3.00;99.90;;;;;;4997669;28;19937;-77
2021/01/22 05:54:46;;;;;;;;;;;3.00;99.90;;;;;;4997336;28;19930;-76
2021/01/22 05:57:13;;;;;;;;;;;3.00;99.90;;;;;;4997438;28;19937;-76
2021/01/22 05:59:39;;;;;;;;;;;3.00;99.90;;;;;;4997446;28;19926;-76
2021/01/22 06:02:16;;;;;;;;;;;3.00;99.90;;;;;;4997225;28;19926;-77
2021/01/22 06:04:42;;;;;;;;;;;3.00;99.90;;;;;;4996178;28;19926;-77
2021/01/22 06:07:13;;;;;;;;;;;3.00;99.90;;;;;;4997272;28;20003;-76
2021/01/22 06:09:39;;;;;;;;;;;3.00;99.90;;;;;;4997062;28;19937;-76
2021/01/22 06:12:06;;;;;;;;;;;3.00;99.90;;;;;;4997242;28;19936;-76
2021/01/22 06:14:34;;;;;;;;;;;3.00;99.90;;;;;;4997163;28;19948;-76
2021/01/22 06:17:01;;;;;;;;;;;3.00;99.90;;;;;;4997400;28;20012;-77
2021/01/22 06:19:28;;;;;;;;;;;3.00;99.90;;;;;;4998410;28;19960;-77
2021/01/22 06:21:57;;;;;;;;;;;3.00;99.90;;;;;;4996990;28;19926;-76
2021/01/22 06:24:23;;;;;;;;;;;2.90;99.90;;;;;;4996632;28;19937;-76
2021/01/22 06:26:49;;;;;;;;;;;2.90;99.90;;;;;;4997070;28;19936;-76
2021/01/22 06:29:16;;;;;;;;;;;3.00;99.90;;;;;;4996975;28;19926;-76
2021/01/22 06:31:42;;;;;;;;;;;2.90;99.90;;;;;;4996815;28;19925;-77
2021/01/22 06:34:08;;;;;;;;;;;2.90;99.90;;;;;;4996680;28;19925;-76
2021/01/22 06:36:36;;;;;;;;;;;2.90;99.90;;;;;;4996560;28;20275;-76
2021/01/22 06:39:03;;;;;;;;;;;2.90;99.90;;;;;;4996397;28;19926;-76
2021/01/22 06:41:29;;;;;;;;;;;2.80;99.90;;;;;;4996463;28;20250;-76
2021/01/22 06:43:59;;;;;;;;;;;2.80;99.90;;;;;;4996238;28;20346;-76
2021/01/22 06:46:26;;;;;;;;;;;2.80;99.90;;;;;;4996666;28;19934;-76
2021/01/22 06:48:53;;;;;;;;;;;2.80;99.90;;;;;;4995427;28;19930;-76
2021/01/22 06:51:19;;;;;;;;;;;2.70;99.90;;;;;;4996490;28;19933;-76
2021/01/22 06:54:04;;;;;;;;;;;2.80;99.90;;;;;;4996254;28;19926;-77
2021/01/22 06:56:32;;;;;;;;;;;2.70;99.90;;;;;;4995882;28;20378;-77
2021/01/22 06:59:13;;;;;;;;;;;2.70;99.90;;;;;;4996261;28;19926;-76
2021/01/22 07:01:39;;;;;;;;;;;2.60;99.90;;;;;;4995557;28;19949;-77
2021/01/22 07:04:06;;;;;;;;;;;2.60;99.90;;;;;;4996039;28;19929;-76
2021/01/22 07:06:48;;;;;;;;;;;2.70;99.90;;;;;;4995963;28;19933;-77
2021/01/22 07:09:15;;;;;;;;;;;2.70;99.90;;;;;;4996393;28;19925;-77
2021/01/22 07:11:52;;;;;;;;;;;2.70;99.90;;;;;;4996018;28;19937;-77
2021/01/22 07:14:34;;;;;;;;;;;2.70;99.90;;;;;;4995939;28;20254;-76
2021/01/22 07:17:18;;;;;;;;;;;2.70;99.90;;;;;;4995765;28;20346;-77
2021/01/22 07:19:54;;;;;;;;;;;2.70;99.90;;;;;;4995824;28;19925;-77
2021/01/22 07:22:20;;;;;;;;;;;2.70;99.90;;;;;;4995600;28;19926;-76
2021/01/22 07:24:53;;;;;;;;;;;2.70;99.90;;;;;;4995718;28;20325;-76
2021/01/22 07:27:20;;;;;;;;;;;2.70;99.90;;;;;;4995787;28;19932;-76
2021/01/22 07:30:05;;;;;;;;;;;2.70;99.90;;;;;;4995727;28;20355;-76
2021/01/22 07:32:31;;;;;;;;;;;2.70;99.90;;;;;;4995662;28;20377;-76
2021/01/22 07:34:57;;;;;;;;;;;2.70;99.90;;;;;;4995627;28;20373;-76
2021/01/22 07:37:24;;;;;;;;;;;2.70;99.90;;;;;;4995614;28;19936;-77
2021/01/22 07:39:51;;;;;;;;;;;2.70;99.90;;;;;;4995789;28;19930;-76
2021/01/22 07:42:18;;;;;;;;;;;2.70;99.90;;;;;;4995619;28;19999;-76
2021/01/22 07:44:45;;;;;;;;;;;2.70;99.90;;;;;;4995889;28;19926;-76
2021/01/22 07:47:23;;;;;;;;;;;2.70;99.90;;;;;;4995338;28;19926;-76
2021/01/22 07:49:55;;;;;;;;;;;2.80;99.90;;;;;;4995660;28;19937;-76
2021/01/22 07:52:22;;;;;;;;;;;2.80;99.90;;;;;;4995475;28;19925;-76
2021/01/22 07:54:48;;;;;;;;;;;2.70;99.90;;;;;;4995756;28;20232;-77
2021/01/22 07:57:15;;;;;;;;;;;2.80;99.90;;;;;;4995614;28;19989;-76
2021/01/22 07:59:43;;;;;;;;;;;2.80;99.90;;;;;;4995319;28;20343;-77
2021/01/22 08:02:13;;;;;;;;;;;2.80;99.90;;;;;;4995468;28;20335;-77
2021/01/22 08:04:40;;;;;;;;;;;2.90;99.90;;;;;;4995784;28;19926;-77
2021/01/22 08:07:15;;;;;;;;;;;2.80;99.90;;;;;;5000813;28;19925;-77
2021/01/22 08:09:51;;;;;;;;;;;2.90;99.90;;;;;;5001187;28;19926;-77
2021/01/22 08:12:17;;;;;;;;;;;2.90;99.90;;;;;;4999065;28;20263;-77
2021/01/22 08:14:43;;;;;;;;;;;2.90;99.90;;;;;;4999024;28;20271;-77
2021/01/22 08:17:10;;;;;;;;;;;2.90;99.90;;;;;;4999174;28;20246;-77
2021/01/22 08:19:37;;;;;;;;;;;2.90;99.90;;;;;;4998691;28;20331;-77
2021/01/22 08:22:03;;;;;;;;;;;2.90;99.90;;;;;;4999345;28;19930;-77
2021/01/22 08:24:30;;;;;;;;;;;2.90;99.90;;;;;;5006709;23;19925;-76
2021/01/22 08:26:59;;;;;;;;;;;2.90;99.90;;;;;;4964555;28;19937;-77
2021/01/22 08:29:26;;;;;;;;;;;2.90;99.90;;;;;;4960090;28;19927;-77
2021/01/22 08:31:53;;;;;;;;;;;2.90;99.90;;;;;;4960027;29;20417;-77
2021/01/22 08:34:19;;;;;;;;;;;2.80;99.90;;;;;;4960738;29;19927;-77
2021/01/22 08:36:47;;;;;;;;;;;2.80;99.90;;;;;;4960006;29;19927;-78
2021/01/22 08:39:13;;;;;;;;;;;2.80;99.90;;;;;;4979161;28;19930;-78
2021/01/22 08:41:39;;;;;;;;;;;2.70;99.90;;;;;;4979493;28;19926;-78
2021/01/22 08:44:06;;;;;;;;;;;2.80;99.90;;;;;;4979798;28;19926;-77
2021/01/22 08:46:32;;;;;;;;;;;2.80;99.90;;;;;;4979190;28;19926;-77
2021/01/22 08:48:58;;;;;;;;;;;2.80;99.90;;;;;;4979082;28;19926;-78
2021/01/22 08:51:28;;;;;;;;;;;2.80;99.90;;;;;;4979089;28;19937;-77
2021/01/22 08:53:55;;;;;;;;;;;2.80;99.90;;;;;;4979228;28;19926;-78
2021/01/22 08:56:22;;;;;;;;;;;2.80;99.90;;;;;;4979000;28;20377;-77
2021/01/22 08:58:58;;;;;;;;;;;2.90;99.90;;;;;;4978957;28;20243;-77
2021/01/22 09:01:39;;;;;;;;;;;2.90;99.90;;;;;;4978902;28;19941;-77
2021/01/22 09:04:16;;;;;;;;;;;2.90;99.90;;;;;;4978562;28;20359;-77
2021/01/22 09:06:46;;;;;;;;;;;2.90;99.90;;;;;;4978912;28;19930;-77
2021/01/22 09:09:13;;;;;;;;;;;2.80;99.90;;;;;;4978757;28;19926;-77
2021/01/22 09:11:39;;;;;;;;;;;2.80;99.90;;;;;;4978697;28;19933;-77
2021/01/22 09:14:06;;;;;;;;;;;2.80;99.90;;;;;;4978682;28;19933;-77
2021/01/22 09:16:32;;;;;;;;;;;2.80;99.90;;;;;;4978599;28;19927;-77
2021/01/22 09:18:59;;;;;;;;;;;2.90;99.90;;;;;;4978002;28;19934;-77
2021/01/22 09:21:25;;;;;;;;;;;2.90;99.90;;;;;;4978709;28;19926;-77
2021/01/22 09:23:51;;;;;;;;;;;2.90;99.90;;;;;;4978224;28;19927;-77
2021/01/22 09:26:19;;;;;;;;;;;2.90;99.90;;;;;;4978329;28;19926;-77
2021/01/22 09:28:46;;;;;;;;;;;2.90;99.90;;;;;;4978310;28;20025;-77
2021/01/22 09:31:12;;;;;;;;;;;2.80;99.90;;;;;;4978130;28;19958;-77
2021/01/22 09:33:38;;;;;;;;;;;2.80;99.90;;;;;;4978154;28;19927;-77
2021/01/22 09:36:05;;;;;;;;;;;2.90;99.90;;;;;;4978146;28;19930;-77
2021/01/22 09:38:32;;;;;;;;;;;2.80;99.90;;;;;;4978372;28;19926;-77
2021/01/22 09:40:58;;;;;;;;;;;2.80;99.90;;;;;;4978166;28;19925;-77
2021/01/22 09:43:25;;;;;;;;;;;2.80;99.90;;;;;;4978102;28;20026;-77
2021/01/22 09:45:52;;;;;;;;;;;2.90;99.90;;;;;;4978048;28;19926;-77
2021/01/22 09:48:18;;;;;;;;;;;2.80;99.90;;;;;;4978051;28;19926;-77
2021/01/22 09:50:45;;;;;;;;;;;2.90;99.90;;;;;;4978215;28;19965;-77
2021/01/22 09:53:11;;;;;;;;;;;2.80;99.90;;;;;;4978202;28;19930;-77
2021/01/22 09:55:37;;;;;;;;;;;2.80;99.90;;;;;;4977815;28;19933;-77
2021/01/22 09:58:04;;;;;;;;;;;2.90;99.90;;;;;;4977842;28;19926;-77
2021/01/22 10:00:31;;;;;;;;;;;2.90;99.90;;;;;;4977981;28;19926;-77
2021/01/22 10:02:58;;;;;;;;;;;2.90;99.90;;;;;;4977790;28;20021;-77
2021/01/22 10:05:24;;;;;;;;;;;3.00;99.90;;;;;;4977873;28;20366;-77
2021/01/22 10:07:51;;;;;;;;;;;3.00;99.90;;;;;;4977819;28;20275;-77
2021/01/22 10:10:17;;;;;;;;;;;3.10;99.90;;;;;;4977710;28;19926;-77
2021/01/22 10:12:44;;;;;;;;;;;3.10;99.90;;;;;;4977844;28;19952;-77
2021/01/22 10:15:11;;;;;;;;;;;3.10;99.90;;;;;;4977617;28;19989;-77
2021/01/22 10:17:39;;;;;;;;;;;3.10;99.90;;;;;;4977701;28;19936;-77
2021/01/22 10:20:06;;;;;;;;;;;3.10;99.90;;;;;;4977371;28;19992;-77
2021/01/22 10:22:32;;;;;;;;;;;3.20;99.90;;;;;;4977384;28;19937;-77
2021/01/22 10:24:58;;;;;;;;;;;3.20;99.90;;;;;;4977213;28;20339;-77
2021/01/22 10:27:24;;;;;;;;;;;3.20;99.90;;;;;;4977284;28;19954;-77
2021/01/22 10:29:51;;;;;;;;;;;3.20;99.90;;;;;;4976339;28;19932;-77
2021/01/22 10:32:17;;;;;;;;;;;3.20;99.90;;;;;;4977191;28;19926;-77
2021/01/22 10:34:44;;;;;;;;;;;3.20;99.90;;;;;;4977165;28;19930;-77
2021/01/22 10:37:11;;;;;;;;;;;3.20;99.90;;;;;;4977184;28;19926;-77
2021/01/22 10:39:37;;;;;;;;;;;3.20;99.90;;;;;;4976907;28;19985;-77
2021/01/22 10:42:03;;;;;;;;;;;3.20;99.90;;;;;;4977114;28;19988;-77
2021/01/22 10:44:30;;;;;;;;;;;3.20;99.90;;;;;;4976869;28;19926;-78
2021/01/22 10:46:56;;;;;;;;;;;3.20;99.90;;;;;;4977069;28;19926;-77
2021/01/22 10:49:23;;;;;;;;;;;3.20;99.90;;;;;;4976976;28;19926;-78
2021/01/22 10:51:50;;;;;;;;;;;3.20;99.90;;;;;;4977143;28;19927;-77
2021/01/22 10:54:16;;;;;;;;;;;3.30;99.90;;;;;;4977130;28;20339;-77
2021/01/22 10:56:42;;;;;;;;;;;3.30;99.90;;;;;;4977096;28;19926;-77
2021/01/22 10:59:09;;;;;;;;;;;3.40;99.90;;;;;;4977006;28;19984;-77
2021/01/22 11:01:35;;;;;;;;;;;3.50;99.90;;;;;;4976827;28;19930;-77
2021/01/22 11:04:02;;;;;;;;;;;3.50;99.90;;;;;;4976509;28;19926;-77
2021/01/22 11:06:28;;;;;;;;;;;3.60;99.90;;;;;;4976663;28;19926;-77
2021/01/22 11:08:55;;;;;;;;;;;3.60;99.90;;;;;;4977003;28;19926;-78
2021/01/22 11:11:22;;;;;;;;;;;3.60;99.90;;;;;;4977497;28;20235;-78
2021/01/22 11:13:48;;;;;;;;;;;3.50;99.90;;;;;;4977683;28;19926;-78
2021/01/22 11:16:14;;;;;;;;;;;3.50;99.90;;;;;;4978125;28;20069;-78
2021/01/22 11:18:41;;;;;;;;;;;3.50;99.90;;;;;;4979021;28;19937;-78
2021/01/22 11:21:07;;;;;;;;;;;3.50;99.90;;;;;;4978871;28;20009;-78
2021/01/22 11:23:34;;;;;;;;;;;3.50;99.90;;;;;;4978494;28;20564;-78
2021/01/22 11:26:02;;;;;;;;;;;3.50;99.90;;;;;;4978914;28;19976;-78
2021/01/22 11:28:28;;;;;;;;;;;3.50;99.90;;;;;;4979299;28;20377;-78
2021/01/22 11:30:55;;;;;;;;;;;3.60;99.90;;;;;;4978312;28;19946;-78
2021/01/22 11:33:21;;;;;;;;;;;3.60;99.90;;;;;;4977979;28;19926;-78
2021/01/22 11:35:48;;;;;;;;;;;3.60;99.90;;;;;;4977597;28;19930;-78
2021/01/22 11:38:14;;;;;;;;;;;3.60;99.90;;;;;;4977863;28;19973;-78
2021/01/22 11:40:40;;;;;;;;;;;3.60;99.90;;;;;;4976728;28;19926;-78
2021/01/22 11:43:07;;;;;;;;;;;3.60;99.90;;;;;;4977582;28;19926;-78
2021/01/22 11:45:34;;;;;;;;;;;3.60;99.90;;;;;;4977387;28;19926;-78
2021/01/22 11:48:00;;;;;;;;;;;3.60;99.90;;;;;;4977386;28;19940;-78
2021/01/22 11:50:26;;;;;;;;;;;3.60;99.90;;;;;;4977242;28;19926;-78
2021/01/22 11:52:53;;;;;;;;;;;3.60;99.90;;;;;;4977213;28;20359;-78
2021/01/22 11:55:20;;;;;;;;;;;3.60;99.90;;;;;;4977300;28;19926;-78
2021/01/22 11:57:47;;;;;;;;;;;3.60;99.90;;;;;;4977029;28;20355;-78
2021/01/22 12:00:16;;;;;;;;;;;3.60;99.90;;;;;;4976779;28;20314;-78
2021/01/22 12:02:42;;;;;;;;;;;3.70;99.90;;;;;;4976735;28;19937;-78
2021/01/22 12:05:09;;;;;;;;;;;3.70;99.90;;;;;;4976673;28;19933;-78
2021/01/22 12:07:35;;;;;;;;;;;3.70;99.90;;;;;;4976622;28;19930;-78
2021/01/22 12:10:02;;;;;;;;;;;3.80;99.90;;;;;;5234831;23;19925;-78
2021/01/22 12:12:28;;;;;;;;;;;3.80;99.90;;;;;;4999191;28;19981;-78
2021/01/22 12:14:56;;;;;;;;;;;3.80;99.90;;;;;;4996493;28;19930;-78
2021/01/22 12:17:23;;;;;;;;;;;3.80;99.90;;;;;;4996117;28;19926;-78
2021/01/22 12:19:49;;;;;;;;;;;3.90;99.90;;;;;;4995366;28;19926;-78
2021/01/22 12:22:16;;;;;;;;;;;3.90;99.90;;;;;;4995870;28;19937;-78
2021/01/22 12:24:42;;;;;;;;;;;3.90;99.90;;;;;;4996103;28;19926;-77
2021/01/22 12:27:08;;;;;;;;;;;3.90;99.90;;;;;;4996109;28;19952;-78
2021/01/22 12:29:35;;;;;;;;;;;3.90;99.90;;;;;;4996127;28;19929;-78
2021/01/22 12:32:01;;;;;;;;;;;3.90;99.90;;;;;;4995726;28;19948;-78
2021/01/22 12:34:28;;;;;;;;;;;4.00;99.90;;;;;;4995652;28;19987;-78
2021/01/22 12:36:55;;;;;;;;;;;4.00;99.90;;;;;;4996139;28;19952;-78
2021/01/22 12:39:21;;;;;;;;;;;4.10;99.90;;;;;;4995897;28;19971;-78
2021/01/22 12:41:49;;;;;;;;;;;4.20;99.90;;;;;;4996010;28;19952;-78
2021/01/22 12:44:15;;;;;;;;;;;4.20;99.90;;;;;;4995728;28;19926;-78
2021/01/22 12:46:42;;;;;;;;;;;4.30;99.90;;;;;;4996076;28;19936;-78
2021/01/22 12:49:09;;;;;;;;;;;4.40;99.90;;;;;;4995590;28;19933;-78
2021/01/22 12:51:36;;;;;;;;;;;4.40;99.90;;;;;;4996222;28;20020;-78
2021/01/22 12:54:02;;;;;;;;;;;4.50;99.90;;;;;;4998175;28;19926;-78
2021/01/22 12:56:29;;;;;;;;;;;4.50;99.90;;;;;;4999625;28;19930;-78
2021/01/22 12:58:55;;;;;;;;;;;4.50;99.90;;;;;;4999073;28;20265;-78
2021/01/22 13:01:21;;;;;;;;;;;4.50;99.90;;;;;;4999876;28;20376;-78
2021/01/22 13:03:48;;;;;;;;;;;4.40;99.90;;;;;;5001556;28;20367;-78
2021/01/22 13:06:14;;;;;;;;;;;4.50;99.90;;;;;;5001546;28;19929;-78
2021/01/22 13:11:46;;;;;;;;;;;1.50;99.90;;;;;;5015780;23;19921;31
2021/01/22 15:29:52;;;;;;;;;;;2.20;99.90;;;;;;5028626;28;19924;-76
2021/01/22 15:40:46;;;;;;;;;;;4.30;99.90;;;;;;5042004;23;19996;-77
2021/01/22 15:43:15;;;;;;;;;;;4.10;99.90;;;;;;5024583;28;19915;-78
2021/01/22 15:45:45;;;;;;;;;;;3.80;99.90;;;;;;5028269;28;19955;-76
2021/01/22 15:48:12;;;;;;;;;;;4.10;99.90;;;;;;5027134;28;19935;-77
2021/01/22 15:50:39;;;;;;;;;;;5.30;99.90;;;;;;5023450;28;19916;-78
2021/01/22 15:53:05;;;;;;;;;;;4.10;99.90;;;;;;5031910;28;19916;-77
2021/01/22 15:55:31;;;;;;;;;;;3.20;99.90;;;;;;5033714;23;19910;-76
2021/01/22 15:57:58;;;;;;;;;;;4.10;99.90;;;;;;5025849;28;19910;-78
2021/01/22 16:00:26;;;;;;;;;;;4.00;99.90;;;;;;5033568;28;20016;-79
2021/01/22 16:02:53;;;;;;;;;;;3.90;99.90;;;;;;5023073;28;19925;-75
2021/01/22 16:05:21;;;;;;;;;;;3.90;99.90;;;;;;5015366;28;19926;-76
2021/01/22 16:07:48;;;;;;;;;;;3.90;99.90;;;;;;5031584;28;19996;-79
2021/01/22 16:10:16;;;;;;;;;;;3.00;99.90;;;;;;5067030;23;19977;-79
2021/01/22 16:24:01;;;;;;;;;;;4.20;99.90;;;;;;5018179;28;19917;-79
2021/01/22 16:29:33;;;;;;;;;;;4.10;99.90;;;;;;5022178;28;19925;-79
2021/01/22 16:37:57;;;;;;;;;;;2.70;99.90;;;;;;5691537;23;19917;-80
2021/01/22 17:34:52;;;;;;;;;;;3.60;99.90;;;;;;5772193;23;19916;-79
2021/01/22 17:37:19;;;;;;;;;;;3.30;99.90;;;;;;5021389;28;19997;-77
2021/01/22 17:39:45;;;;;;;;;;;3.70;99.90;;;;;;5017129;28;19926;-77
2021/01/22 17:42:11;;;;;;;;;;;3.50;99.90;;;;;;5017491;28;19925;-77
2021/01/22 17:44:42;;;;;;;;;;;3.50;99.90;;;;;;5019184;28;20051;-77
2021/01/22 17:47:09;;;;;;;;;;;3.50;99.90;;;;;;5018235;28;20341;-77
2021/01/22 17:49:35;;;;;;;;;;;3.60;99.90;;;;;;5024222;28;19948;-78
2021/01/22 17:52:03;;;;;;;;;;;3.50;99.90;;;;;;5029180;28;19961;-79
2021/01/22 17:54:29;;;;;;;;;;;3.50;99.90;;;;;;5029472;28;19952;-78
2021/01/22 17:56:56;;;;;;;;;;;3.50;99.90;;;;;;5028335;28;20069;-78
2021/01/22 17:59:22;;;;;;;;;;;3.50;99.90;;;;;;5027794;28;19925;-78
2021/01/22 18:01:48;;;;;;;;;;;3.50;99.90;;;;;;5027760;28;19988;-78
2021/01/22 18:04:18;;;;;;;;;;;3.50;99.90;;;;;;5029746;28;20020;-78
2021/01/22 18:06:44;;;;;;;;;;;3.50;99.90;;;;;;5031139;28;19972;-78
2021/01/22 18:09:12;;;;;;;;;;;3.50;99.90;;;;;;5024685;28;19939;-78
2021/01/22 18:11:38;;;;;;;;;;;3.50;99.90;;;;;;5025755;28;19925;-78
2021/01/22 18:14:04;;;;;;;;;;;3.50;99.90;;;;;;5031497;28;20008;-78
2021/01/22 18:16:31;;;;;;;;;;;3.70;99.90;;;;;;5026982;28;20019;-78
2021/01/22 18:18:57;;;;;;;;;;;3.50;99.90;;;;;;5021429;28;19936;-78
2021/01/22 18:21:23;;;;;;;;;;;3.50;99.90;;;;;;5022238;28;19925;-78
2021/01/22 18:23:50;;;;;;;;;;;3.50;99.90;;;;;;5026844;28;19979;-78
2021/01/22 18:26:17;;;;;;;;;;;3.40;99.90;;;;;;5024793;28;19925;-78
2021/01/22 18:28:43;;;;;;;;;;;3.50;99.90;;;;;;5023327;28;19925;-78
2021/01/22 18:31:10;;;;;;;;;;;3.50;99.90;;;;;;5021997;28;19925;-78
2021/01/22 18:33:36;;;;;;;;;;;3.40;99.90;;;;;;5022496;28;19925;-78
2021/01/22 18:36:02;;;;;;;;;;;3.40;99.90;;;;;;5025493;28;19925;-78
2021/01/22 18:38:29;;;;;;;;;;;3.40;99.90;;;;;;5023700;28;20023;-78
2021/01/22 18:40:55;;;;;;;;;;;3.40;99.90;;;;;;5022344;28;19925;-78
2021/01/22 18:43:22;;;;;;;;;;;3.30;99.90;;;;;;5023729;28;19926;-78
2021/01/22 18:45:49;;;;;;;;;;;3.30;99.90;;;;;;5020048;28;19936;-78
2021/01/22 18:48:15;;;;;;;;;;;3.30;99.90;;;;;;5023579;28;19925;-77
2021/01/22 18:50:41;;;;;;;;;;;3.30;99.90;;;;;;5022998;28;19925;-78
2021/01/22 18:53:08;;;;;;;;;;;3.30;99.90;;;;;;5023031;28;19925;-78
2021/01/22 18:55:34;;;;;;;;;;;3.20;99.90;;;;;;5021324;28;19944;-78
2021/01/22 18:58:00;;;;;;;;;;;3.20;99.90;;;;;;5019672;28;19930;-78
2021/01/22 19:00:27;;;;;;;;;;;3.20;99.90;;;;;;5018339;28;19933;-77
2021/01/22 19:02:54;;;;;;;;;;;3.30;99.90;;;;;;5018589;28;19935;-77
2021/01/22 19:05:20;;;;;;;;;;;3.20;99.90;;;;;;5018692;28;19936;-77
2021/01/22 19:07:48;;;;;;;;;;;3.30;99.90;;;;;;5018639;28;19944;-77
2021/01/22 19:10:14;;;;;;;;;;;3.20;99.90;;;;;;5018405;28;20274;-77
2021/01/22 19:12:41;;;;;;;;;;;3.20;99.90;;;;;;5019204;28;19939;-77
2021/01/22 19:15:07;;;;;;;;;;;3.20;99.90;;;;;;5019769;28;19925;-78
2021/01/22 19:17:35;;;;;;;;;;;3.20;99.90;;;;;;5018955;28;20365;-77
2021/01/22 19:20:01;;;;;;;;;;;3.20;99.90;;;;;;5019019;28;19930;-77
2021/01/22 19:22:27;;;;;;;;;;;3.20;99.90;;;;;;5019606;28;19925;-77
2021/01/22 19:24:54;;;;;;;;;;;3.20;99.90;;;;;;5020119;28;19935;-77
2021/01/22 19:27:20;;;;;;;;;;;3.20;99.90;;;;;;5020041;28;19926;-77
2021/01/22 19:29:46;;;;;;;;;;;3.20;99.90;;;;;;5019243;28;19945;-77
2021/01/22 19:32:13;;;;;;;;;;;3.20;99.90;;;;;;5019799;28;20346;-77
2021/01/22 19:34:40;;;;;;;;;;;3.20;99.90;;;;;;5018279;28;20385;-77
2021/01/22 19:37:07;;;;;;;;;;;3.20;99.90;;;;;;5017530;28;19925;-77
2021/01/22 19:39:33;;;;;;;;;;;3.20;99.90;;;;;;5017666;28;19926;-77
2021/01/22 19:42:00;;;;;;;;;;;3.20;99.90;;;;;;5016764;28;20380;-77
2021/01/22 19:44:26;;;;;;;;;;;3.20;99.90;;;;;;5013915;28;19932;-77
2021/01/22 19:46:52;;;;;;;;;;;3.20;99.90;;;;;;5016946;28;19944;-77
2021/01/22 19:49:19;;;;;;;;;;;3.20;99.90;;;;;;5017067;28;19926;-77
2021/01/22 19:51:47;;;;;;;;;;;3.20;99.90;;;;;;5019592;28;19926;-78
2021/01/22 19:54:14;;;;;;;;;;;3.20;99.90;;;;;;5022843;28;19926;-78
2021/01/22 19:56:40;;;;;;;;;;;3.20;99.90;;;;;;5020212;28;19930;-78
2021/01/22 19:59:07;;;;;;;;;;;3.20;99.90;;;;;;5020889;28;19925;-78
2021/01/22 20:01:34;;;;;;;;;;;3.20;99.90;;;;;;5021703;28;19956;-77
2021/01/22 20:04:00;;;;;;;;;;;3.20;99.90;;;;;;5028462;28;20110;-77
2021/01/22 20:06:27;;;;;;;;;;;3.20;99.90;;;;;;5229039;23;19949;-80
2021/01/22 20:08:54;;;;;;;;;;;3.20;99.90;;;;;;4994074;28;19933;-80
2021/01/22 20:11:20;;;;;;;;;;;4.60;99.90;;;;;;5093039;23;19926;-78
2021/01/22 20:13:49;;;;;;;;;;;3.20;99.90;;;;;;5013394;28;19914;-80
2021/01/22 20:16:16;;;;;;;;;;;3.10;99.90;;;;;;5016554;28;19925;-79
2021/01/22 20:21:39;;;;;;;;;;;3.80;99.90;;;;;;5306700;23;19996;-81
2021/01/22 20:43:31;;;;;;;;;;;3.30;99.90;;;;;;5013273;28;19926;-78
2021/01/22 20:45:58;;;;;;;;;;;3.30;99.90;;;;;;5007776;28;19992;-78
2021/01/22 20:48:25;;;;;;;;;;;3.00;99.90;;;;;;5005087;28;20016;-78
2021/01/22 20:50:51;;;;;;;;;;;3.00;99.90;;;;;;5003945;28;19926;-78
2021/01/22 20:53:18;;;;;;;;;;;3.00;99.90;;;;;;5001905;28;19925;-77
2021/01/22 20:55:44;;;;;;;;;;;3.00;99.90;;;;;;5000750;28;19937;-77
2021/01/22 20:58:13;;;;;;;;;;;3.00;99.90;;;;;;5000155;28;19926;-77
2021/01/22 21:00:40;;;;;;;;;;;3.10;99.90;;;;;;5000008;28;20343;-77
2021/01/22 21:03:06;;;;;;;;;;;3.00;99.90;;;;;;4999900;28;19926;-77
2021/01/22 21:05:33;;;;;;;;;;;3.10;99.90;;;;;;5000566;28;19926;-77
2021/01/22 21:07:59;;;;;;;;;;;3.10;99.90;;;;;;5000437;28;19933;-77
2021/01/22 21:10:26;;;;;;;;;;;3.10;99.90;;;;;;5000220;28;19936;-77
2021/01/22 21:12:52;;;;;;;;;;;3.10;99.90;;;;;;4999236;28;19937;-77
2021/01/22 21:15:19;;;;;;;;;;;3.20;99.90;;;;;;4998506;28;19926;-77
2021/01/22 21:17:45;;;;;;;;;;;3.10;99.90;;;;;;5000278;28;19945;-77
2021/01/22 21:20:11;;;;;;;;;;;3.10;99.90;;;;;;4999589;28;19930;-77
2021/01/22 21:22:39;;;;;;;;;;;3.10;99.90;;;;;;4999514;28;20325;-77
2021/01/22 21:25:06;;;;;;;;;;;3.00;99.90;;;;;;4999089;28;19936;-77
2021/01/22 21:27:32;;;;;;;;;;;3.00;99.90;;;;;;4982203;28;19926;-77
2021/01/22 21:30:00;;;;;;;;;;;3.00;99.90;;;;;;4999218;28;19926;-77
2021/01/22 21:32:26;;;;;;;;;;;3.00;99.90;;;;;;4999519;28;19934;-77
2021/01/22 21:34:53;;;;;;;;;;;3.00;99.90;;;;;;4999069;28;19925;-77
2021/01/22 21:37:19;;;;;;;;;;;3.00;99.90;;;;;;4998773;28;19934;-77
2021/01/22 21:39:46;;;;;;;;;;;3.00;99.90;;;;;;4998309;28;19932;-77
2021/01/22 21:42:12;;;;;;;;;;;3.00;99.90;;;;;;4998677;28;19937;-77
2021/01/22 21:44:39;;;;;;;;;;;2.90;99.90;;;;;;4999586;28;19932;-77
2021/01/22 21:47:05;;;;;;;;;;;2.90;99.90;;;;;;5001054;28;19926;-77
2021/01/22 21:49:31;;;;;;;;;;;2.80;99.90;;;;;;4998649;28;19925;-77
2021/01/22 21:51:58;;;;;;;;;;;2.80;99.90;;;;;;4998263;28;20350;-77
2021/01/22 21:54:24;;;;;;;;;;;2.70;99.90;;;;;;4998162;28;19930;-77
2021/01/22 21:56:51;;;;;;;;;;;2.70;99.90;;;;;;4997856;28;19936;-77
2021/01/22 21:59:18;;;;;;;;;;;2.60;99.90;;;;;;4997681;28;19936;-77
2021/01/22 22:01:44;;;;;;;;;;;2.60;99.90;;;;;;4997991;28;19945;-76
2021/01/22 22:04:10;;;;;;;;;;;2.60;99.90;;;;;;5000693;28;19925;-77
2021/01/22 22:06:37;;;;;;;;;;;2.60;99.90;;;;;;5002335;28;19956;-77
2021/01/22 22:09:03;;;;;;;;;;;2.60;99.90;;;;;;5004566;28;19926;-78
2021/01/22 22:11:29;;;;;;;;;;;2.50;99.90;;;;;;5005774;28;20297;-78
2021/01/22 22:13:57;;;;;;;;;;;0.90;99.90;;;;;;5004958;28;20350;-77
2021/01/22 22:16:23;;;;;;;;;;;2.50;99.90;;;;;;5000824;28;20351;-77
2021/01/22 22:18:49;;;;;;;;;;;2.60;99.90;;;;;;5000035;28;20024;-77
2021/01/22 22:21:16;;;;;;;;;;;2.60;99.90;;;;;;5001041;28;19930;-77
2021/01/22 22:23:44;;;;;;;;;;;2.60;99.90;;;;;;4999723;28;20008;-77
2021/01/22 22:26:10;;;;;;;;;;;2.60;99.90;;;;;;4998675;28;19937;-77
2021/01/22 22:28:37;;;;;;;;;;;2.60;99.90;;;;;;4998907;28;19952;-77
2021/01/22 22:31:04;;;;;;;;;;;2.60;99.90;;;;;;4998472;28;19925;-77
2021/01/22 22:33:31;;;;;;;;;;;2.70;99.90;;;;;;4998795;28;19934;-77
2021/01/22 22:35:57;;;;;;;;;;;2.70;99.90;;;;;;5000609;28;20251;-77
2021/01/22 22:38:23;;;;;;;;;;;2.70;99.90;;;;;;4999189;28;19925;-77
2021/01/22 22:40:50;;;;;;;;;;;2.70;99.90;;;;;;4998659;28;20359;-77
2021/01/22 22:43:16;;;;;;;;;;;2.70;99.90;;;;;;4998856;28;20372;-77
2021/01/22 22:45:42;;;;;;;;;;;2.70;99.90;;;;;;4998184;28;19936;-77
2021/01/22 22:48:10;;;;;;;;;;;2.70;99.90;;;;;;4999208;28;19932;-77
2021/01/22 22:50:36;;;;;;;;;;;2.70;99.90;;;;;;4999538;28;20310;-77
2021/01/22 22:53:03;;;;;;;;;;;2.70;99.90;;;;;;4999360;28;19926;-77
2021/01/22 22:55:29;;;;;;;;;;;2.70;99.90;;;;;;4998892;28;20343;-77
2021/01/22 22:57:56;;;;;;;;;;;2.70;99.90;;;;;;4999390;28;19926;-77
2021/01/22 23:00:23;;;;;;;;;;;2.70;99.90;;;;;;4998639;28;19926;-77
2021/01/22 23:02:50;;;;;;;;;;;2.70;99.90;;;;;;4998438;28;20355;-77
2021/01/22 23:05:18;;;;;;;;;;;2.70;99.90;;;;;;4999074;28;20355;-77
2021/01/22 23:07:45;;;;;;;;;;;2.70;99.90;;;;;;5002303;28;19925;-77
2021/01/22 23:10:11;;;;;;;;;;;2.70;99.90;;;;;;5002235;28;19926;-77
2021/01/22 23:12:38;;;;;;;;;;;2.70;99.90;;;;;;5002255;28;19926;-77
2021/01/22 23:15:05;;;;;;;;;;;2.70;99.90;;;;;;5001497;28;20354;-78
2021/01/22 23:17:31;;;;;;;;;;;2.70;99.90;;;;;;5002944;28;19936;-78
2021/01/22 23:19:57;;;;;;;;;;;2.70;99.90;;;;;;5004829;28;19925;-77
2021/01/22 23:22:25;;;;;;;;;;;3.10;99.90;;;;;;5002423;28;19925;-77
2021/01/22 23:24:51;;;;;;;;;;;2.70;99.90;;;;;;4996252;28;19926;-77
2021/01/22 23:27:17;;;;;;;;;;;2.70;99.90;;;;;;4998045;28;19925;-77
2021/01/22 23:29:44;;;;;;;;;;;2.70;99.90;;;;;;4999284;28;19936;-76
2021/01/22 23:32:10;;;;;;;;;;;5.20;99.90;;;;;;4997693;28;19936;-75
2021/01/22 23:34:37;;;;;;;;;;;2.70;99.90;;;;;;4996637;28;19926;-75
2021/01/22 23:37:03;;;;;;;;;;;2.70;99.90;;;;;;4996102;28;19926;-78
2021/01/22 23:39:30;;;;;;;;;;;2.80;99.90;;;;;;4995516;28;20020;-77
2021/01/22 23:41:57;;;;;;;;;;;2.80;99.90;;;;;;5004168;28;19941;-80
2021/01/22 23:44:23;;;;;;;;;;;2.80;99.90;;;;;;5004700;28;20028;-77
2021/01/22 23:46:49;;;;;;;;;;;2.80;99.90;;;;;;4996665;28;19925;-76
2021/01/22 23:49:16;;;;;;;;;;;2.80;99.90;;;;;;5000711;28;19937;-77
2021/01/22 23:51:42;;;;;;;;;;;2.70;99.90;;;;;;4999591;28;19926;-77
2021/01/22 23:54:09;;;;;;;;;;;2.60;99.90;;;;;;5004804;28;20020;-77
2021/01/22 23:56:36;;;;;;;;;;;2.70;99.90;;;;;;5000894;28;20032;-77
2021/01/22 23:59:03;;;;;;;;;;;2.70;99.90;;;;;;5007306;28;19961;-77
